createdAt,value
2022-08-30T00:00:39.984Z,2.70
2022-08-30T00:03:16.325Z,2.92
2022-08-30T00:05:52.080Z,3.55
2022-08-30T00:08:31.962Z,2.25
2022-08-30T00:10:58.592Z,2.20
2022-08-30T00:13:25.029Z,2.83
2022-08-30T00:15:58.022Z,2.75
2022-08-30T00:18:24.603Z,3.25
2022-08-30T00:20:57.949Z,2.22
2022-08-30T00:23:24.421Z,2.13
2022-08-30T00:25:57.954Z,2.70
2022-08-30T00:28:24.391Z,2.97
2022-08-30T00:30:51.596Z,2.45
2022-08-30T00:33:24.971Z,2.53
2022-08-30T00:35:51.394Z,2.27
2022-08-30T00:38:25.958Z,2.38
2022-08-30T00:40:52.918Z,2.80
2022-08-30T00:43:33.959Z,2.65
2022-08-30T00:46:04.665Z,2.70
2022-08-30T00:48:33.347Z,3.30
2022-08-30T00:51:09.937Z,2.58
2022-08-30T00:53:42.065Z,3.35
2022-08-30T00:56:16.917Z,3.58
2022-08-30T00:58:55.953Z,3.10
2022-08-30T01:01:23.347Z,2.73
2022-08-30T01:03:57.930Z,3.78
2022-08-30T01:06:26.059Z,3.03
2022-08-30T01:09:07.922Z,3.67
2022-08-30T01:11:37.368Z,3.28
2022-08-30T01:14:06.373Z,3.30
2022-08-30T01:16:40.951Z,3.28
2022-08-30T01:19:21.435Z,3.60
2022-08-30T01:22:03.918Z,4.18
2022-08-30T01:24:31.425Z,3.70
2022-08-30T01:26:58.193Z,3.50
2022-08-30T01:29:31.920Z,3.47
2022-08-30T01:31:58.300Z,3.15
2022-08-30T01:34:31.942Z,4.07
2022-08-30T01:36:58.317Z,3.83
2022-08-30T01:39:31.929Z,3.80
2022-08-30T01:41:58.551Z,4.13
2022-08-30T01:44:31.933Z,3.88
2022-08-30T01:46:58.622Z,3.63
2022-08-30T01:49:27.565Z,3.63
2022-08-30T01:52:01.934Z,4.37
2022-08-30T01:54:37.018Z,3.70
2022-08-30T01:57:13.943Z,3.95
2022-08-30T01:59:49.910Z,4.00
2022-08-30T02:02:26.893Z,3.80
2022-08-30T02:04:54.383Z,3.90
2022-08-30T02:07:33.889Z,3.70
2022-08-30T02:10:00.437Z,3.92
2022-08-30T02:12:33.928Z,4.35
2022-08-30T02:15:07.974Z,4.47
2022-08-30T02:17:41.942Z,4.07
2022-08-30T02:20:09.543Z,4.10
2022-08-30T02:22:36.052Z,4.07
2022-08-30T02:25:11.222Z,4.20
2022-08-30T02:27:47.503Z,4.20
2022-08-30T02:30:21.038Z,4.40
2022-08-30T02:32:47.490Z,4.18
2022-08-30T02:35:20.889Z,4.78
2022-08-30T02:37:47.281Z,4.32
2022-08-30T02:40:19.969Z,4.60
2022-08-30T02:42:49.503Z,4.40
2022-08-30T02:45:16.284Z,4.05
2022-08-30T02:47:51.902Z,4.40
2022-08-30T02:50:18.584Z,4.47
2022-08-30T02:52:51.907Z,5.10
2022-08-30T02:55:20.877Z,4.50
2022-08-30T02:57:53.978Z,5.03
2022-08-30T03:00:21.261Z,5.00
2022-08-30T03:02:47.832Z,5.18
2022-08-30T03:05:21.911Z,4.80
2022-08-30T03:07:48.483Z,5.13
2022-08-30T03:10:16.333Z,4.97
2022-08-30T03:12:49.942Z,5.25
2022-08-30T03:15:27.111Z,5.00
2022-08-30T03:18:01.936Z,5.03
2022-08-30T03:20:29.042Z,5.70
2022-08-30T03:23:01.911Z,5.00
2022-08-30T03:25:35.897Z,5.05
2022-08-30T03:28:02.510Z,4.85
2022-08-30T03:30:35.928Z,5.25
2022-08-30T03:33:09.891Z,4.33
2022-08-30T03:35:37.868Z,4.07
2022-08-30T03:38:04.355Z,4.57
2022-08-30T03:40:37.986Z,4.50
2022-08-30T03:43:04.895Z,5.18
2022-08-30T03:45:38.949Z,5.00
2022-08-30T03:48:05.674Z,5.10
2022-08-30T03:50:39.884Z,5.28
2022-08-30T03:53:06.478Z,5.80
2022-08-30T03:55:39.929Z,5.25
2022-08-30T03:58:06.362Z,5.00
2022-08-30T04:00:39.935Z,5.10
2022-08-30T04:03:06.498Z,4.57
2022-08-30T04:05:32.885Z,5.18
2022-08-30T04:08:05.896Z,4.53
2022-08-30T04:10:38.899Z,4.53
2022-08-30T04:13:11.864Z,4.32
2022-08-30T04:15:38.254Z,3.80
2022-08-30T04:18:10.897Z,4.15
2022-08-30T04:20:37.939Z,4.45
2022-08-30T04:23:13.891Z,4.57
2022-08-30T04:25:47.878Z,5.00
2022-08-30T04:28:21.892Z,4.65
2022-08-30T04:30:48.697Z,4.78
2022-08-30T04:33:16.789Z,5.30
2022-08-30T04:35:52.887Z,5.60
2022-08-30T04:38:22.611Z,5.13
2022-08-30T04:40:56.903Z,5.07
2022-08-30T04:43:31.890Z,5.07
2022-08-30T04:45:58.350Z,5.07
2022-08-30T04:48:31.900Z,5.73
2022-08-30T04:51:04.896Z,5.25
2022-08-30T04:53:37.914Z,5.60
2022-08-30T04:56:18.876Z,5.95
2022-08-30T04:58:53.868Z,5.20
2022-08-30T05:01:23.884Z,5.43
2022-08-30T05:03:58.872Z,5.30
2022-08-30T05:06:41.879Z,5.30
2022-08-30T05:09:08.280Z,5.55
2022-08-30T05:11:40.868Z,5.00
2022-08-30T05:14:13.874Z,5.10
2022-08-30T05:16:41.655Z,5.38
2022-08-30T05:19:14.902Z,4.68
2022-08-30T05:21:41.451Z,4.50
2022-08-30T05:24:14.895Z,5.03
2022-08-30T05:26:41.356Z,4.70
2022-08-30T05:29:14.003Z,4.97
2022-08-30T05:31:40.687Z,4.50
2022-08-30T05:34:07.207Z,4.55
2022-08-30T05:36:41.928Z,4.57
2022-08-30T05:39:10.428Z,4.43
2022-08-30T05:41:38.476Z,4.30
2022-08-30T05:44:13.851Z,4.53
2022-08-30T05:46:45.558Z,4.15
2022-08-30T05:49:19.858Z,4.13
2022-08-30T05:51:46.268Z,3.87
2022-08-30T05:54:20.870Z,3.45
2022-08-30T05:56:53.980Z,3.70
2022-08-30T05:59:27.870Z,3.65
2022-08-30T06:01:58.060Z,4.03
2022-08-30T06:04:24.622Z,3.37
2022-08-30T06:06:57.883Z,3.65
2022-08-30T06:09:24.275Z,3.53
2022-08-30T06:11:57.867Z,3.40
2022-08-30T06:14:31.850Z,3.50
2022-08-30T06:17:04.884Z,3.20
2022-08-30T06:19:31.271Z,3.50
2022-08-30T06:21:57.819Z,3.72
2022-08-30T06:24:54.003Z,3.22
2022-08-30T06:27:24.861Z,3.15
2022-08-30T06:29:59.881Z,3.50
2022-08-30T06:32:33.850Z,2.97
2022-08-30T06:35:08.865Z,3.00
2022-08-30T06:37:35.338Z,3.25
2022-08-30T06:40:03.315Z,2.42
2022-08-30T06:42:39.863Z,2.23
2022-08-30T06:45:10.423Z,2.22
2022-08-30T06:47:38.254Z,2.50
2022-08-30T06:50:12.190Z,2.50
2022-08-30T06:52:43.282Z,2.58
2022-08-30T06:55:19.851Z,1.87
2022-08-30T06:57:53.924Z,2.25
2022-08-30T07:00:27.851Z,2.10
2022-08-30T07:03:02.139Z,1.30
2022-08-30T07:05:28.633Z,1.65
2022-08-30T07:08:01.851Z,1.50
2022-08-30T07:10:34.867Z,1.15
2022-08-30T07:13:01.444Z,1.20
2022-08-30T07:15:27.846Z,1.45
2022-08-30T07:18:21.884Z,1.10
2022-08-30T07:20:48.309Z,0.70
2022-08-30T07:23:20.871Z,0.80
2022-08-30T07:25:47.453Z,1.30
2022-08-30T07:28:21.854Z,0.80
2022-08-30T07:30:48.473Z,1.13
2022-08-30T07:33:21.858Z,0.50
2022-08-30T07:35:48.227Z,1.00
2022-08-30T07:38:14.975Z,0.80
2022-08-30T07:40:47.910Z,0.50
2022-08-30T07:43:14.346Z,0.77
2022-08-30T07:45:47.852Z,0.60
2022-08-30T07:48:14.257Z,0.80
2022-08-30T07:50:57.054Z,0.75
2022-08-30T07:53:25.134Z,1.67
2022-08-30T07:55:57.874Z,0.55
2022-08-30T07:58:39.842Z,0.83
2022-08-30T08:01:16.003Z,0.50
2022-08-30T08:03:43.343Z,0.30
2022-08-30T08:06:12.223Z,0.57
2022-08-30T08:08:46.987Z,0.70
2022-08-30T08:11:17.083Z,0.53
2022-08-30T08:13:53.535Z,0.40
2022-08-30T08:16:29.868Z,0.85
2022-08-30T08:18:57.223Z,0.50
2022-08-30T08:21:24.819Z,0.73
2022-08-30T08:24:05.863Z,0.40
2022-08-30T08:26:45.320Z,0.50
2022-08-30T08:29:12.101Z,0.30
2022-08-30T08:31:38.669Z,0.30
2022-08-30T08:34:11.870Z,0.55
2022-08-30T08:36:38.340Z,0.30
2022-08-30T08:39:13.843Z,0.60
2022-08-30T08:42:04.753Z,0.65
2022-08-30T08:44:59.842Z,0.50
2022-08-30T08:47:43.863Z,0.60
2022-08-30T08:50:23.849Z,0.70
2022-08-30T08:53:36.177Z,0.40
2022-08-30T08:56:19.848Z,0.35
2022-08-30T08:58:56.520Z,0.60
2022-08-30T09:01:33.927Z,0.40
2022-08-30T09:04:08.038Z,0.50
2022-08-30T09:06:51.846Z,0.40
2022-08-30T09:09:27.533Z,0.50
2022-08-30T09:12:01.866Z,0.40
2022-08-30T09:14:34.705Z,0.60
2022-08-30T09:17:11.838Z,0.70
2022-08-30T09:19:40.351Z,0.73
2022-08-30T09:22:18.846Z,0.40
2022-08-30T09:24:48.572Z,0.70
2022-08-30T09:27:32.869Z,0.40
2022-08-30T09:30:14.756Z,0.37
2022-08-30T09:32:52.543Z,0.45
2022-08-30T09:35:30.852Z,0.40
2022-08-30T09:38:05.534Z,0.50
2022-08-30T09:40:45.960Z,0.30
2022-08-30T09:46:19.920Z,0.60
2022-08-30T09:48:47.329Z,0.40
2022-08-30T09:51:49.831Z,0.52
2022-08-30T09:54:24.643Z,0.40
2022-08-30T09:57:34.399Z,0.40
2022-08-30T10:00:13.472Z,0.40
2022-08-30T10:03:35.342Z,0.63
2022-08-30T10:06:27.919Z,0.60
2022-08-30T10:09:03.838Z,0.80
2022-08-30T10:11:50.869Z,0.90
2022-08-30T10:14:26.200Z,0.55
2022-08-30T10:17:29.847Z,0.30
2022-08-30T10:20:27.860Z,0.30
2022-08-30T10:23:09.232Z,0.40
2022-08-30T10:25:47.860Z,0.40
2022-08-30T10:28:43.565Z,0.45
2022-08-30T10:31:37.860Z,0.40
2022-08-30T10:34:17.843Z,0.60
2022-08-30T10:37:01.835Z,0.43
2022-08-30T10:39:34.023Z,0.50
2022-08-30T10:42:15.829Z,0.45
2022-08-30T10:44:49.703Z,0.60
2022-08-30T10:47:50.352Z,0.38
2022-08-30T10:50:21.562Z,0.50
2022-08-30T10:53:15.951Z,0.40
2022-08-30T10:55:58.558Z,0.30
2022-08-30T10:58:31.846Z,0.40
2022-08-30T11:01:46.667Z,0.50
2022-08-30T11:05:03.873Z,0.90
2022-08-30T11:07:40.696Z,0.50
2022-08-30T11:10:37.887Z,0.50
2022-08-30T11:13:10.553Z,0.45
2022-08-30T11:16:01.840Z,0.52
2022-08-30T11:18:41.517Z,0.60
2022-08-30T11:21:25.888Z,0.60
2022-08-30T11:24:11.407Z,0.70
2022-08-30T11:26:51.863Z,0.67
2022-08-30T11:29:44.395Z,0.40
2022-08-30T11:32:21.853Z,0.60
2022-08-30T11:34:48.169Z,0.40
2022-08-30T11:37:50.635Z,0.98
2022-08-30T11:40:19.901Z,0.40
2022-08-30T11:42:59.844Z,0.63
2022-08-30T11:45:28.485Z,0.55
2022-08-30T11:48:07.837Z,0.60
2022-08-30T11:51:05.116Z,0.57
2022-08-30T11:53:56.977Z,1.08
2022-08-30T11:56:39.863Z,0.50
2022-08-30T11:59:10.466Z,0.57
2022-08-30T12:01:51.997Z,0.50
2022-08-30T12:04:20.900Z,0.40
2022-08-30T12:07:05.831Z,0.40
2022-08-30T12:09:35.206Z,0.57
2022-08-30T12:16:03.930Z,1.13
2022-08-30T12:18:49.851Z,0.50
2022-08-30T12:21:22.460Z,0.50
2022-08-30T12:24:22.829Z,0.70
2022-08-30T12:26:52.297Z,0.63
2022-08-30T12:29:29.862Z,0.90
2022-08-30T12:32:09.497Z,0.73
2022-08-30T12:34:57.869Z,0.60
2022-08-30T12:37:32.105Z,0.50
2022-08-30T12:40:12.258Z,0.68
2022-08-30T12:42:55.838Z,0.60
2022-08-30T12:45:33.855Z,0.90
2022-08-30T12:48:25.845Z,0.70
2022-08-30T12:50:56.027Z,0.70
2022-08-30T12:53:36.030Z,0.90
2022-08-30T12:56:04.859Z,0.50
2022-08-30T12:58:53.901Z,0.63
2022-08-30T13:01:33.322Z,0.82
2022-08-30T13:04:19.860Z,0.93
2022-08-30T13:07:13.883Z,0.93
2022-08-30T13:09:44.060Z,0.70
2022-08-30T13:12:32.839Z,1.48
2022-08-30T13:15:16.479Z,1.25
2022-08-30T13:17:49.833Z,0.82
2022-08-30T13:20:16.269Z,0.73
2022-08-30T13:23:08.891Z,0.80
2022-08-30T13:25:44.807Z,1.02
2022-08-30T13:28:17.920Z,1.02
2022-08-30T13:30:50.829Z,1.15
2022-08-30T13:33:17.367Z,1.33
2022-08-30T13:35:51.832Z,0.90
2022-08-30T13:38:24.804Z,1.15
2022-08-30T13:40:57.873Z,1.85
2022-08-30T13:43:24.671Z,1.60
2022-08-30T13:45:57.841Z,1.80
2022-08-30T13:48:25.667Z,1.13
2022-08-30T13:50:53.345Z,1.30
2022-08-30T13:56:14.031Z,1.08
2022-08-30T13:58:46.903Z,1.45
2022-08-30T14:01:13.839Z,1.10
2022-08-30T14:09:41.836Z,0.80
2022-08-30T14:12:08.755Z,1.35
2022-08-30T14:14:43.060Z,0.60
2022-08-30T14:17:11.193Z,0.60
2022-08-30T14:19:45.833Z,0.88
2022-08-30T14:22:18.856Z,0.85
2022-08-30T14:24:45.274Z,0.88
2022-08-30T14:27:17.824Z,0.50
2022-08-30T14:29:44.299Z,0.70
2022-08-30T14:32:17.842Z,0.47
2022-08-30T14:34:44.750Z,0.40
2022-08-30T14:37:18.811Z,0.52
2022-08-30T14:39:53.829Z,0.60
2022-08-30T14:42:20.207Z,0.90
2022-08-30T14:44:56.285Z,0.90
2022-08-30T14:47:30.057Z,0.60
2022-08-30T14:50:00.645Z,0.60
2022-08-30T14:52:37.824Z,0.70
2022-08-30T14:55:08.462Z,0.40
2022-08-30T14:57:41.803Z,0.50
2022-08-30T15:00:11.176Z,0.47
2022-08-30T15:02:43.815Z,0.60
2022-08-30T15:05:10.282Z,0.93
2022-08-30T15:07:43.817Z,0.70
2022-08-30T15:10:19.994Z,0.60
2022-08-30T15:12:57.828Z,0.50
2022-08-30T15:15:30.802Z,0.70
2022-08-30T15:18:03.822Z,0.50
2022-08-30T15:20:30.568Z,0.60
2022-08-30T15:23:03.813Z,0.95
2022-08-30T15:25:31.543Z,0.60
2022-08-30T15:28:04.818Z,0.30
2022-08-30T15:30:37.818Z,0.50
2022-08-30T15:33:04.229Z,0.90
2022-08-30T15:35:36.809Z,0.43
2022-08-30T15:38:03.378Z,0.40
2022-08-30T15:40:39.903Z,0.68
2022-08-30T15:43:06.489Z,0.40
2022-08-30T15:45:33.249Z,0.73
2022-08-30T15:48:07.806Z,0.60
2022-08-30T15:50:35.757Z,0.68
2022-08-30T15:53:09.864Z,0.47
2022-08-30T15:55:36.317Z,0.90
2022-08-30T15:58:09.810Z,0.50
2022-08-30T16:00:37.281Z,0.70
2022-08-30T16:03:11.849Z,0.68
2022-08-30T16:05:38.223Z,0.60
2022-08-30T16:08:04.599Z,0.60
2022-08-30T16:10:37.825Z,0.60
2022-08-30T16:13:15.929Z,0.80
2022-08-30T16:15:44.275Z,0.40
2022-08-30T16:18:19.892Z,0.50
2022-08-30T16:20:52.804Z,0.40
2022-08-30T16:23:19.361Z,0.70
2022-08-30T16:25:51.807Z,0.63
2022-08-30T16:28:24.790Z,0.50
2022-08-30T16:30:51.174Z,0.52
2022-08-30T16:33:31.801Z,0.60
2022-08-30T16:35:58.981Z,0.57
2022-08-30T16:38:32.822Z,0.40
2022-08-30T16:41:05.807Z,0.55
2022-08-30T16:43:39.822Z,0.70
2022-08-30T16:46:10.366Z,0.40
2022-08-30T16:48:45.826Z,0.40
2022-08-30T16:51:17.018Z,1.50
2022-08-30T16:53:44.098Z,0.43
2022-08-30T16:56:23.823Z,0.50
2022-08-30T16:59:02.656Z,0.60
2022-08-30T17:01:31.993Z,0.57
2022-08-30T17:04:05.825Z,0.50
2022-08-30T17:06:32.490Z,0.40
2022-08-30T17:09:15.055Z,0.50
2022-08-30T17:11:41.871Z,0.43
2022-08-30T17:14:17.831Z,0.40
2022-08-30T17:16:55.812Z,0.40
2022-08-30T17:22:16.816Z,0.38
2022-08-30T17:24:43.171Z,0.60
2022-08-30T17:27:17.817Z,0.40
2022-08-30T17:29:45.518Z,0.40
2022-08-30T17:32:11.915Z,0.60
2022-08-30T17:34:45.809Z,0.30
2022-08-30T17:37:13.025Z,0.37
2022-08-30T17:39:39.475Z,0.47
2022-08-30T17:42:13.811Z,0.43
2022-08-30T17:44:42.089Z,0.40
2022-08-30T17:47:15.813Z,0.50
2022-08-30T17:49:42.227Z,0.30
2022-08-30T17:52:15.801Z,0.40
2022-08-30T17:54:43.022Z,0.40
2022-08-30T17:57:17.799Z,0.40
2022-08-30T17:59:45.492Z,0.50
2022-08-30T18:02:22.742Z,0.60
2022-08-30T18:04:57.777Z,0.47
2022-08-30T18:07:38.858Z,0.50
2022-08-30T18:10:13.413Z,0.40
2022-08-30T18:12:47.795Z,0.52
2022-08-30T18:15:16.034Z,0.53
2022-08-30T18:17:50.803Z,0.50
2022-08-30T18:20:18.287Z,0.55
2022-08-30T18:22:44.789Z,0.50
2022-08-30T18:25:17.792Z,0.57
2022-08-30T18:30:41.355Z,0.38
2022-08-30T18:33:08.716Z,0.50
2022-08-30T18:35:45.339Z,0.60
2022-08-30T18:38:14.088Z,0.30
2022-08-30T18:40:41.281Z,0.30
2022-08-30T18:43:17.794Z,0.30
2022-08-30T18:45:57.815Z,1.30
2022-08-30T18:48:25.255Z,0.60
2022-08-30T18:50:53.770Z,0.45
2022-08-30T18:53:28.634Z,0.40
2022-08-30T18:56:03.840Z,0.70
2022-08-30T18:58:30.378Z,0.68
2022-08-30T19:01:02.800Z,0.30
2022-08-30T19:03:32.971Z,0.50
2022-08-30T19:06:14.794Z,0.40
2022-08-30T19:08:49.127Z,0.45
2022-08-30T19:11:21.774Z,0.63
2022-08-30T19:13:49.667Z,0.30
2022-08-30T19:16:25.858Z,0.40
2022-08-30T19:18:52.274Z,0.50
2022-08-30T19:21:19.982Z,0.45
2022-08-30T19:23:55.196Z,0.70
2022-08-30T19:26:29.786Z,0.40
2022-08-30T19:29:03.794Z,0.57
2022-08-30T19:31:30.206Z,0.70
2022-08-30T19:33:58.267Z,0.40
2022-08-30T19:36:30.795Z,0.50
2022-08-30T19:39:03.813Z,0.55
2022-08-30T19:41:30.200Z,0.70
2022-08-30T19:43:57.300Z,0.67
2022-08-30T19:46:33.781Z,0.60
2022-08-30T19:49:11.786Z,0.70
2022-08-30T19:51:47.002Z,0.60
2022-08-30T19:54:13.995Z,0.43
2022-08-30T19:56:48.108Z,0.60
2022-08-30T19:59:16.451Z,0.45
2022-08-30T20:01:49.825Z,0.60
2022-08-30T20:04:16.895Z,0.57
2022-08-30T20:06:45.287Z,0.75
2022-08-30T20:09:19.780Z,0.60
2022-08-30T20:11:55.201Z,0.45
2022-08-30T20:14:25.501Z,0.77
2022-08-30T20:16:59.790Z,0.60
2022-08-30T20:19:29.276Z,0.50
2022-08-30T20:22:07.783Z,0.63
2022-08-30T20:24:23.646Z,0.43
2022-08-30T20:24:27.037Z,0.40
2022-08-30T20:27:09.782Z,0.70
2022-08-30T20:29:37.760Z,0.52
2022-08-30T20:32:04.701Z,1.00
2022-08-30T20:34:37.770Z,0.97
2022-08-30T20:37:10.814Z,0.90
2022-08-30T20:39:44.770Z,0.85
2022-08-30T20:42:12.972Z,1.10
2022-08-30T20:44:45.784Z,0.80
2022-08-30T20:47:12.395Z,1.30
2022-08-30T20:49:44.798Z,0.73
2022-08-30T20:52:11.210Z,1.20
2022-08-30T20:54:43.780Z,0.80
2022-08-30T20:57:10.327Z,1.33
2022-08-30T20:59:45.788Z,1.00
2022-08-30T21:02:27.830Z,1.30
2022-08-30T21:05:09.785Z,1.30
2022-08-30T21:07:43.776Z,1.17
2022-08-30T21:10:22.621Z,1.42
2022-08-30T21:12:49.691Z,1.30
2022-08-30T21:15:36.430Z,1.00
2022-08-30T21:18:09.823Z,1.10
2022-08-30T21:20:36.260Z,0.90
2022-08-30T21:23:09.804Z,1.15
2022-08-30T21:25:49.788Z,1.13
2022-08-30T21:28:22.814Z,1.05
2022-08-30T21:30:55.823Z,0.85
2022-08-30T21:33:22.252Z,1.20
2022-08-30T21:36:13.803Z,0.95
2022-08-30T21:38:40.189Z,0.83
2022-08-30T21:41:06.781Z,0.77
2022-08-30T21:43:39.806Z,0.80
2022-08-30T21:46:13.823Z,0.60
2022-08-30T21:48:40.223Z,0.80
2022-08-30T21:51:14.803Z,0.60
2022-08-30T21:53:47.806Z,1.20
2022-08-30T21:56:21.869Z,0.90
2022-08-30T21:58:55.788Z,0.57
2022-08-30T22:01:35.863Z,0.70
2022-08-30T22:04:07.634Z,0.53
2022-08-30T22:06:43.763Z,0.63
2022-08-30T22:09:13.842Z,0.75
2022-08-30T22:11:50.020Z,0.90
2022-08-30T22:14:18.887Z,0.80
2022-08-30T22:16:51.844Z,0.80
2022-08-30T22:19:23.103Z,0.90
2022-08-30T22:22:01.354Z,0.70
2022-08-30T22:24:35.817Z,0.60
2022-08-30T22:27:03.788Z,0.95
2022-08-30T22:29:36.791Z,0.70
2022-08-30T22:32:03.738Z,0.70
2022-08-30T22:34:31.952Z,0.68
2022-08-30T22:37:05.770Z,0.80
2022-08-30T22:39:32.264Z,0.70
2022-08-30T22:42:05.777Z,0.40
2022-08-30T22:44:32.371Z,0.88
2022-08-30T22:47:06.857Z,0.50
2022-08-30T22:49:33.321Z,1.17
2022-08-30T22:52:05.772Z,0.52
2022-08-30T22:54:33.117Z,0.50
2022-08-30T22:57:05.781Z,0.85
2022-08-30T22:59:32.716Z,0.50
2022-08-30T23:01:59.481Z,0.60
2022-08-30T23:04:33.747Z,0.75
2022-08-30T23:09:35.813Z,0.75
2022-08-30T23:12:02.423Z,0.70
2022-08-30T23:14:35.785Z,0.65
2022-08-30T23:17:09.763Z,0.70
2022-08-30T23:19:42.789Z,0.60
2022-08-30T23:22:09.269Z,0.50
2022-08-30T23:25:00.792Z,0.93
2022-08-30T23:27:51.776Z,0.80
2022-08-30T23:30:43.776Z,0.68
2022-08-30T23:33:29.089Z,0.50
2022-08-30T23:36:21.787Z,0.50
2022-08-30T23:39:06.654Z,0.60
2022-08-30T23:41:57.746Z,0.50
2022-08-30T23:44:42.772Z,0.70
2022-08-30T23:47:33.860Z,0.57
2022-08-30T23:50:25.774Z,0.70
2022-08-30T23:53:10.595Z,0.70
2022-08-30T23:56:04.750Z,0.80
2022-08-30T23:58:49.595Z,0.57
